Terminal Aerodrome Forecast
Issued by NWS

Home | Current Version | Previous Version | Text Only | Print | Product List | Glossary On
Versions: 1 2 3 4 5 6 7 8 9 10 11 12 13
000
FTUS46 KHNX 160531
TAFMER
TAF
KMER 160531Z 1606/1706 34007KT 3SM HZ BKN200
     FM161200 33011KT P6SM SKC
     FM161800 33019G27KT P6SM SKC
     FM170300 33011G18KT P6SM SKC=

USA.gov is the U.S. government's official web portal to all federal, state and local government web resources and services.